Time;durP1;ratioP1;P1;durP2;ratioP2;P2;SDS_P1;SDS_P2;PMS_P1;PMS_P2;Temp;Humidity;BMP_temperature;BMP_pressure;BME280_temperature;BME280_humidity;BME280_pressure;Samples;Min_cycle;Max_cycle;Signal;HPM_P1;HPM_P2
2023/05/30 00:01:39;;;;;;;22.52;14.20;;;;;;;19.25;94.50;100355.72;5030169;28;20081;-86
2023/05/30 00:04:05;;;;;;;23.60;14.93;;;;;;;19.24;94.69;100359.47;5026560;28;20057;-84
2023/05/30 00:06:31;;;;;;;25.75;13.63;;;;;;;19.18;94.51;100354.75;5011392;28;20399;-86
2023/05/30 00:08:57;;;;;;;24.75;14.30;;;;;;;19.26;94.81;100367.47;5011430;28;20140;-86
2023/05/30 00:11:23;;;;;;;20.05;13.60;;;;;;;19.05;94.64;100321.84;5009818;28;20061;-87
2023/05/30 00:13:50;;;;;;;29.42;13.80;;;;;;;19.19;95.16;100366.50;5011011;28;20466;-86
2023/05/30 00:16:19;;;;;;;17.35;14.25;;;;;;;19.19;94.99;100356.47;5010891;28;20549;-87
2023/05/30 00:18:45;;;;;;;19.65;13.30;;;;;;;19.19;95.22;100361.91;5010580;28;20484;-87
2023/05/30 00:21:10;;;;;;;20.20;14.25;;;;;;;19.10;94.78;100352.13;5025233;28;20115;-88
2023/05/30 00:23:40;;;;;;;19.77;13.40;;;;;;;19.10;94.83;100357.59;5011407;28;20018;-85
2023/05/30 00:26:09;;;;;;;23.40;13.70;;;;;;;19.12;95.06;100358.22;5011099;28;20061;-86
2023/05/30 00:28:36;;;;;;;23.45;14.00;;;;;;;19.03;95.28;100348.44;5009892;28;20113;-87
2023/05/30 00:31:01;;;;;;;21.27;14.00;;;;;;;19.02;95.70;100350.31;5011213;28;20121;-87
2023/05/30 00:33:27;;;;;;;23.08;14.90;;;;;;;19.00;95.92;100357.00;5011245;28;20533;-86
2023/05/30 00:35:52;;;;;;;26.38;14.05;;;;;;;18.94;96.16;100341.38;5011135;28;20104;-86
2023/05/30 00:38:18;;;;;;;19.85;13.98;;;;;;;19.04;95.86;100363.78;5010746;28;20032;-86
2023/05/30 00:40:44;;;;;;;28.25;14.35;;;;;;;18.95;96.03;100346.66;5011056;28;20100;-85
2023/05/30 00:43:10;;;;;;;20.63;13.32;;;;;;;18.94;96.05;100346.84;5010932;28;20030;-87
2023/05/30 00:45:35;;;;;;;24.67;14.90;;;;;;;19.01;96.14;100358.69;5026161;28;20056;-86
2023/05/30 00:48:02;;;;;;;24.27;13.68;;;;;;;18.95;96.41;100348.53;5012182;28;20117;-86
2023/05/30 00:50:30;;;;;;;31.23;15.65;;;;;;;18.96;96.67;100342.88;5014741;28;20022;-86
2023/05/30 00:52:57;;;;;;;21.88;13.95;;;;;;;19.05;96.73;100349.09;5014003;28;20053;-86
2023/05/30 00:55:23;;;;;;;21.20;15.23;;;;;;;19.00;96.41;100341.50;5029798;28;20022;-85
2023/05/30 00:57:49;;;;;;;20.77;13.15;;;;;;;19.15;96.02;100363.31;5030849;28;20089;-86
2023/05/30 01:00:16;;;;;;;20.65;13.85;;;;;;;19.11;95.58;100359.25;5018327;28;20038;-86
2023/05/30 01:02:43;;;;;;;18.85;14.40;;;;;;;19.12;95.23;100351.94;5030393;28;20072;-85
2023/05/30 01:05:09;;;;;;;24.50;13.80;;;;;;;19.11;95.24;100364.72;5020507;28;20034;-85
2023/05/30 01:07:34;;;;;;;22.08;14.13;;;;;;;19.12;95.73;100363.69;5013453;28;20029;-86
2023/05/30 01:10:00;;;;;;;22.77;14.63;;;;;;;19.08;95.47;100356.06;5011668;28;20436;-87
2023/05/30 01:12:41;;;;;;;23.40;14.95;;;;;;;19.21;95.27;100369.88;5011933;28;20037;-86
2023/05/30 01:15:27;;;;;;;22.10;14.35;;;;;;;19.15;95.12;100365.19;5011450;28;20096;-86
2023/05/30 01:18:16;;;;;;;24.05;15.18;;;;;;;19.10;94.72;100354.84;5010364;28;20037;-86
2023/05/30 01:20:45;;;;;;;18.40;14.13;;;;;;;19.10;94.59;100367.63;5010731;28;20053;-87
2023/05/30 01:23:32;;;;;;;23.15;14.25;;;;;;;19.06;94.22;100366.31;5011267;28;20025;-87
2023/05/30 01:26:32;;;;;;;20.65;14.32;;;;;;;19.07;94.55;100363.41;5020320;28;20094;-84
2023/05/30 01:29:02;;;;;;;25.50;14.48;;;;;;;18.99;94.48;100344.38;5015508;28;20026;-86
2023/05/30 01:31:29;;;;;;;25.90;14.52;;;;;;;18.96;94.37;100333.84;5010502;28;20617;-86
2023/05/30 01:33:55;;;;;;;18.23;14.48;;;;;;;19.04;93.98;100352.88;5010274;28;20096;-86
2023/05/30 01:36:21;;;;;;;23.08;14.38;;;;;;;19.10;93.65;100354.84;5009957;28;20037;-85
2023/05/30 01:38:46;;;;;;;22.58;14.05;;;;;;;18.96;93.42;100339.31;5009900;28;20339;-86
2023/05/30 01:41:53;;;;;;;21.65;14.80;;;;;;;19.13;93.44;100362.66;5010121;28;20022;-86
2023/05/30 01:44:30;;;;;;;21.65;14.43;;;;;;;19.15;93.23;100368.75;4968928;28;20042;-86
2023/05/30 01:47:26;;;;;;;31.08;14.55;;;;;;;19.00;93.23;100352.41;4969815;28;20054;-86
2023/05/30 01:50:13;;;;;;;39.85;16.27;;;;;;;19.08;93.35;100359.63;4915788;29;20107;-86
2023/05/30 01:52:41;;;;;;;27.20;15.20;;;;;;;19.11;92.72;100358.44;4957098;29;20022;-86
2023/05/30 01:55:09;;;;;;;29.23;15.25;;;;;;;19.12;92.45;100366.41;4952365;29;20044;-85
2023/05/30 01:57:44;;;;;;;45.00;15.63;;;;;;;19.10;91.95;100363.03;4919497;29;20084;-86
2023/05/30 02:00:14;;;;;;;21.17;14.82;;;;;;;19.11;91.88;100359.25;4934001;29;20083;-86
2023/05/30 02:02:44;;;;;;;25.58;14.93;;;;;;;19.05;91.87;100359.19;4933120;29;20031;-87
2023/05/30 02:05:10;;;;;;;18.38;14.90;;;;;;;19.05;91.67;100370.91;4932611;29;20070;-85
2023/05/30 02:07:36;;;;;;;27.55;15.48;;;;;;;19.08;91.97;100375.97;4932589;29;20067;-88
2023/05/30 02:10:01;;;;;;;22.23;14.98;;;;;;;19.00;91.82;100370.63;4932882;29;20492;-87
2023/05/30 02:12:27;;;;;;;21.45;15.52;;;;;;;18.96;91.52;100366.56;4933234;29;20083;-88
2023/05/30 02:14:54;;;;;;;22.23;14.75;;;;;;;18.88;91.56;100366.66;4922218;29;20043;-88
2023/05/30 02:17:22;;;;;;;18.98;14.93;;;;;;;18.98;92.10;100391.78;4933529;29;20038;-88
2023/05/30 02:19:48;;;;;;;20.00;13.65;;;;;;;18.93;92.46;100380.56;4937255;28;20121;-88
2023/05/30 02:22:14;;;;;;;33.65;16.05;;;;;;;18.85;92.42;100372.47;4971827;28;20475;-86
2023/05/30 02:24:39;;;;;;;20.38;14.55;;;;;;;18.84;92.91;100384.38;4972352;28;20693;-86
2023/05/30 02:27:06;;;;;;;24.90;16.17;;;;;;;18.76;93.00;100382.59;5001685;28;20034;-86
2023/05/30 02:29:32;;;;;;;24.02;15.73;;;;;;;18.66;93.35;100384.72;5013600;28;20026;-88
2023/05/30 02:31:57;;;;;;;21.95;16.42;;;;;;;18.70;93.85;100393.38;5013694;28;20037;-88
2023/05/30 02:34:23;;;;;;;31.50;15.93;;;;;;;18.61;94.08;100389.88;5013866;28;20026;-87
2023/05/30 02:36:48;;;;;;;19.00;15.60;;;;;;;18.61;95.02;100399.94;5028632;28;20040;-87
2023/05/30 02:39:13;;;;;;;23.75;16.10;;;;;;;18.55;94.95;100378.84;5013408;28;20513;-89
2023/05/30 02:41:39;;;;;;;27.95;15.98;;;;;;;18.48;94.78;100385.00;5014264;28;20485;-87
2023/05/30 02:44:06;;;;;;;29.05;16.05;;;;;;;18.54;95.10;100398.94;5016592;28;20506;-88
2023/05/30 02:46:33;;;;;;;24.98;14.73;;;;;;;18.45;95.07;100389.97;5016597;28;20037;-88
2023/05/30 02:48:59;;;;;;;25.98;16.20;;;;;;;18.47;95.31;100393.34;5033160;28;20057;-87
2023/05/30 02:51:25;;;;;;;19.20;14.38;;;;;;;18.39;95.52;100386.09;5036135;28;20014;-87
2023/05/30 02:53:50;;;;;;;23.75;15.20;;;;;;;18.39;95.63;100386.09;5021215;28;20036;-87
2023/05/30 02:56:16;;;;;;;22.85;15.20;;;;;;;18.41;95.34;100385.91;5015512;28;20042;-88
2023/05/30 02:58:41;;;;;;;18.85;13.80;;;;;;;18.44;95.20;100405.44;5014370;28;20030;-88
2023/05/30 03:01:07;;;;;;;22.95;14.68;;;;;;;18.44;94.96;100410.91;5013888;28;20505;-87
2023/05/30 03:03:34;;;;;;;21.95;15.23;;;;;;;18.44;94.98;100405.44;5011897;28;20034;-87
2023/05/30 03:06:01;;;;;;;21.88;14.27;;;;;;;18.42;95.20;100390.31;4993884;28;20506;-80
2023/05/30 03:08:28;;;;;;;24.83;15.07;;;;;;;18.50;95.09;100416.69;5009365;28;20453;-83
2023/05/30 03:10:54;;;;;;;23.40;14.93;;;;;;;18.45;94.85;100409.88;5017482;28;20084;-90
2023/05/30 03:13:20;;;;;;;21.13;14.32;;;;;;;18.46;95.13;100411.59;5007244;28;20057;-89
2023/05/30 03:15:46;;;;;;;19.65;15.05;;;;;;;18.56;95.30;100424.97;4997564;28;20046;-82
2023/05/30 03:18:12;;;;;;;18.00;14.15;;;;;;;18.61;94.72;100417.13;5016539;28;20666;-89
2023/05/30 03:20:37;;;;;;;26.25;14.75;;;;;;;18.62;94.16;100423.44;5012207;28;20451;-88
2023/05/30 03:23:02;;;;;;;23.13;15.70;;;;;;;18.46;93.92;100397.13;5016780;28;20030;-87
2023/05/30 03:25:28;;;;;;;22.00;15.10;;;;;;;18.64;94.24;100429.53;5017901;28;20548;-87
2023/05/30 03:27:54;;;;;;;25.55;15.70;;;;;;;18.56;94.31;100410.53;5027132;28;20034;-89
2023/05/30 03:30:22;;;;;;;26.52;14.20;;;;;;;18.55;94.37;100408.81;5051041;28;20034;-92
2023/05/30 03:32:48;;;;;;;18.90;14.48;;;;;;;18.64;94.10;100424.94;5052387;28;20045;-89
2023/05/30 03:35:16;;;;;;;22.77;13.43;;;;;;;18.67;93.53;100415.53;5052679;28;20084;-88
2023/05/30 03:37:41;;;;;;;22.95;14.77;;;;;;;18.62;93.03;100418.81;5043693;28;20041;-88
2023/05/30 03:40:08;;;;;;;42.15;15.55;;;;;;;18.78;93.38;100432.31;5033750;28;20038;-90
2023/05/30 03:42:34;;;;;;;29.20;13.43;;;;;;;18.85;93.27;100422.38;5013461;28;20022;-79
2023/05/30 03:45:00;;;;;;;29.42;14.63;;;;;;;18.87;93.09;100427.63;5012247;28;20058;-77
2023/05/30 03:47:25;;;;;;;30.10;15.18;;;;;;;18.94;92.83;100434.91;5011791;28;20488;-78
2023/05/30 03:49:51;;;;;;;24.17;14.10;;;;;;;18.98;92.14;100430.78;5011162;28;20403;-79
2023/05/30 03:52:17;;;;;;;18.20;13.55;;;;;;;19.02;91.18;100428.50;5015227;28;20058;-82
2023/05/30 03:54:43;;;;;;;22.92;14.93;;;;;;;18.98;90.69;100408.97;5014036;28;20133;-88
2023/05/30 03:57:09;;;;;;;29.52;14.38;;;;;;;18.94;91.18;100407.66;5027809;28;20480;-88
2023/05/30 03:59:34;;;;;;;18.63;14.18;;;;;;;19.06;90.46;100416.22;5011790;28;20113;-86
2023/05/30 04:02:00;;;;;;;23.13;13.73;;;;;;;19.10;90.30;100406.66;5013247;28;20029;-87
2023/05/30 04:04:26;;;;;;;35.55;14.55;;;;;;;19.13;90.19;100411.72;5011244;28;20119;-85
2023/05/30 04:06:52;;;;;;;24.77;14.25;;;;;;;19.22;89.46;100420.69;5011423;28;20524;-84
2023/05/30 04:09:18;;;;;;;27.55;13.52;;;;;;;19.27;89.30;100423.69;5010883;28;20064;-82
2023/05/30 04:11:43;;;;;;;21.98;13.73;;;;;;;19.35;88.91;100434.53;5007320;28;20018;-82
2023/05/30 04:14:08;;;;;;;22.42;13.40;;;;;;;19.38;88.56;100431.44;5009073;28;20053;-78
2023/05/30 04:16:34;;;;;;;29.60;14.20;;;;;;;19.50;88.80;100424.50;5010628;28;20025;-82
2023/05/30 04:18:59;;;;;;;32.50;12.40;;;;;;;19.52;88.18;100423.28;5010050;28;20030;-79
2023/05/30 04:21:26;;;;;;;20.40;13.00;;;;;;;19.62;87.36;100424.88;5009986;28;20053;-82
2023/05/30 04:23:52;;;;;;;20.48;12.73;;;;;;;19.70;86.44;100425.63;5009098;28;20444;-80
2023/05/30 04:26:17;;;;;;;16.52;12.32;;;;;;;19.80;86.22;100434.38;5009956;28;20037;-83
2023/05/30 04:28:43;;;;;;;20.08;12.68;;;;;;;19.88;85.99;100423.34;5009082;28;20036;-81
2023/05/30 04:31:10;;;;;;;31.20;12.50;;;;;;;19.93;85.06;100436.44;5009858;28;20119;-78
2023/05/30 04:33:35;;;;;;;34.58;13.93;;;;;;;19.98;84.52;100428.53;5009052;28;20038;-80
2023/05/30 04:36:06;;;;;;;40.88;13.15;;;;;;;20.04;84.58;100434.06;5009615;28;20030;-82
2023/05/30 04:38:35;;;;;;;58.00;14.98;;;;;;;20.10;83.88;100440.66;5010092;28;20026;-81
2023/05/30 04:41:03;;;;;;;67.03;16.80;;;;;;;20.25;83.84;100446.09;5038886;23;20032;-90
2023/05/30 04:43:34;;;;;;;19.83;12.82;;;;;;;20.26;82.46;100442.34;5051854;23;20058;-80
2023/05/30 04:46:04;;;;;;;34.55;13.20;;;;;;;20.36;82.27;100443.75;5017853;28;20034;-82
2023/05/30 04:48:30;;;;;;;15.80;10.85;;;;;;;20.36;82.10;100430.09;5009852;28;20076;-79
2023/05/30 04:50:58;;;;;;;21.33;12.25;;;;;;;20.47;81.29;100429.59;5011117;28;20480;-77
2023/05/30 04:53:23;;;;;;;45.28;13.07;;;;;;;20.61;80.99;100450.53;5008867;28;20491;-80
2023/05/30 04:55:49;;;;;;;44.28;13.07;;;;;;;20.72;80.53;100459.28;5008713;28;20046;-77
2023/05/30 04:58:15;;;;;;;22.80;12.10;;;;;;;20.74;79.74;100458.03;5009008;28;20022;-81
2023/05/30 05:00:40;;;;;;;40.72;12.15;;;;;;;20.79;79.14;100465.66;5009290;28;20034;-78
2023/05/30 05:03:07;;;;;;;28.88;14.90;;;;;;;20.70;79.33;100447.69;5008971;28;20057;-80
2023/05/30 05:05:33;;;;;;;23.42;13.00;;;;;;;20.83;79.86;100453.28;5008348;28;20120;-78
2023/05/30 05:07:59;;;;;;;41.88;13.90;;;;;;;20.88;79.85;100445.34;5008587;28;20037;-78
2023/05/30 05:10:24;;;;;;;50.38;14.02;;;;;;;21.00;79.17;100458.31;5008956;28;20033;-88
2023/05/30 05:12:49;;;;;;;23.80;11.23;;;;;;;21.06;78.86;100445.72;5008650;28;20040;-82
2023/05/30 05:15:15;;;;;;;44.08;12.10;;;;;;;21.20;78.12;100449.44;5008627;28;20811;-82
2023/05/30 05:17:40;;;;;;;29.48;12.45;;;;;;;21.20;77.69;100446.72;5008963;28;20037;-88
2023/05/30 05:20:07;;;;;;;62.22;13.13;;;;;;;21.23;77.11;100441.69;5009678;28;20052;-88
2023/05/30 05:22:32;;;;;;;40.03;12.90;;;;;;;21.45;76.93;100446.06;5009303;28;20109;-83
2023/05/30 05:24:58;;;;;;;71.05;13.25;;;;;;;21.58;76.75;100451.66;5009770;28;20537;-82
2023/05/30 05:27:26;;;;;;;75.07;14.45;;;;;;;21.68;74.69;100446.63;5011658;28;20409;-87
2023/05/30 05:29:51;;;;;;;20.92;10.40;;;;;;;21.78;74.51;100445.44;5016613;28;20533;-83
2023/05/30 05:32:17;;;;;;;43.17;11.60;;;;;;;21.77;73.32;100451.97;5022479;28;20151;-84
2023/05/30 05:34:42;;;;;;;33.25;11.48;;;;;;;21.89;73.18;100453.13;5014296;28;20084;-82
2023/05/30 05:37:08;;;;;;;35.35;11.13;;;;;;;21.91;72.71;100462.84;5018774;28;20037;-82
2023/05/30 05:39:34;;;;;;;32.20;10.50;;;;;;;21.82;72.10;100461.28;5024872;28;20034;-81
2023/05/30 05:42:01;;;;;;;14.95;9.43;;;;;;;21.87;70.61;100463.38;5013965;28;20046;-82
2023/05/30 05:44:27;;;;;;;21.10;10.45;;;;;;;22.02;71.49;100464.13;5012781;28;20843;-79
2023/05/30 05:46:53;;;;;;;105.22;14.02;;;;;;;22.16;71.02;100460.44;5012378;28;20109;-80
2023/05/30 05:49:18;;;;;;;47.92;11.82;;;;;;;22.34;70.92;100457.97;5012253;28;20878;-79
2023/05/30 05:51:44;;;;;;;21.58;9.68;;;;;;;22.45;69.67;100454.63;5012074;28;20025;-79
2023/05/30 05:54:10;;;;;;;20.95;9.27;;;;;;;22.51;69.94;100433.78;5019538;28;20039;-83
2023/05/30 05:56:36;;;;;;;21.38;9.65;;;;;;;22.75;69.11;100450.53;5013121;28;20812;-81
2023/05/30 05:59:01;;;;;;;14.80;8.82;;;;;;;22.89;68.65;100440.44;5027468;28;20040;-81
2023/05/30 06:01:26;;;;;;;115.82;16.50;;;;;;;23.07;67.70;100461.75;5012123;28;20026;-82
2023/05/30 06:03:52;;;;;;;20.23;9.18;;;;;;;23.12;66.79;100461.97;5010871;28;20034;-83
2023/05/30 06:06:17;;;;;;;69.47;13.48;;;;;;;23.21;66.97;100444.22;5011918;28;20029;-83
2023/05/30 06:08:45;;;;;;;47.28;11.32;;;;;;;23.44;67.00;100458.41;5011556;28;20061;-80
2023/05/30 06:11:10;;;;;;;18.73;8.48;;;;;;;23.52;66.09;100452.69;5011087;28;20409;-82
2023/05/30 06:13:36;;;;;;;17.50;8.43;;;;;;;23.57;65.74;100461.16;5012139;28;20030;-82
2023/05/30 06:16:01;;;;;;;57.40;10.80;;;;;;;23.43;65.03;100453.97;5019474;28;20032;-84
2023/05/30 06:18:27;;;;;;;17.20;7.75;;;;;;;23.49;64.95;100455.88;5038760;28;20034;-86
2023/05/30 06:20:52;;;;;;;20.50;9.48;;;;;;;23.51;64.64;100455.66;5012337;28;20026;-82
2023/05/30 06:23:19;;;;;;;20.45;9.70;;;;;;;23.59;65.16;100467.28;5011407;28;20033;-79
2023/05/30 06:25:45;;;;;;;27.70;9.20;;;;;;;23.59;64.77;100464.53;5012482;28;20117;-78
2023/05/30 06:28:10;;;;;;;36.33;10.20;;;;;;;23.62;65.31;100455.84;5011851;28;20116;-79
2023/05/30 06:30:36;;;;;;;19.27;8.77;;;;;;;23.71;65.09;100465.56;5012415;28;20494;-84
2023/05/30 06:33:02;;;;;;;29.27;8.07;;;;;;;23.71;65.06;100468.31;5012332;28;20765;-80
2023/05/30 06:35:28;;;;;;;31.75;9.82;;;;;;;23.75;65.32;100466.84;5027588;28;20034;-84
2023/05/30 06:37:53;;;;;;;20.83;8.40;;;;;;;23.76;64.11;100459.41;5029192;28;20076;-86
2023/05/30 06:40:19;;;;;;;28.60;8.02;;;;;;;23.81;64.22;100471.47;5012405;28;20727;-77
2023/05/30 06:42:44;;;;;;;21.63;9.10;;;;;;;23.90;64.81;100471.22;5010729;28;20129;-77
2023/05/30 06:45:10;;;;;;;19.05;8.52;;;;;;;24.01;64.72;100470.56;5010959;28;20125;-78
2023/05/30 06:47:36;;;;;;;18.20;8.80;;;;;;;24.10;63.83;100463.75;5010705;28;20045;-78
2023/05/30 06:50:01;;;;;;;19.80;8.68;;;;;;;24.11;62.06;100460.84;5010693;28;20066;-78
2023/05/30 06:52:26;;;;;;;15.07;9.25;;;;;;;24.25;63.34;100472.63;5010320;28;20044;-77
2023/05/30 06:54:52;;;;;;;20.92;7.85;;;;;;;24.35;62.73;100454.63;5010636;28;20026;-78
2023/05/30 06:57:17;;;;;;;29.40;8.27;;;;;;;24.57;61.65;100457.88;5010884;28;20034;-78
2023/05/30 06:59:43;;;;;;;20.45;9.32;;;;;;;24.89;61.31;100467.88;5010744;28;20022;-77
2023/05/30 07:02:10;;;;;;;14.00;6.32;;;;;;;25.09;59.12;100473.25;5010478;28;20065;-78
2023/05/30 07:04:36;;;;;;;29.08;8.40;;;;;;;25.24;58.75;100459.16;5010413;28;20037;-79
2023/05/30 07:07:02;;;;;;;77.28;29.33;;;;;;;25.37;57.70;100473.66;5010045;28;20033;-77
2023/05/30 07:09:27;;;;;;;16.48;8.38;;;;;;;25.50;56.53;100463.63;5010781;28;20022;-77
2023/05/30 07:11:53;;;;;;;21.63;8.30;;;;;;;25.68;56.69;100478.28;5010177;28;20057;-76
2023/05/30 07:14:19;;;;;;;16.13;8.05;;;;;;;25.80;56.27;100465.44;5010414;28;20482;-79
2023/05/30 07:16:44;;;;;;;30.15;10.13;;;;;;;25.98;56.51;100464.63;5010069;28;20037;-78
2023/05/30 07:19:10;;;;;;;51.17;10.80;;;;;;;25.79;53.38;100455.50;5010066;28;20034;-77
2023/05/30 07:21:36;;;;;;;116.78;15.98;;;;;;;25.95;52.96;100468.69;5010289;28;20947;-79
2023/05/30 07:24:02;;;;;;;26.83;8.63;;;;;;;25.95;52.71;100465.06;5010738;28;20083;-77
2023/05/30 07:26:27;;;;;;;23.83;8.07;;;;;;;25.97;53.92;100476.69;5010908;28;20041;-78
2023/05/30 07:28:53;;;;;;;38.00;10.45;;;;;;;25.89;52.04;100458.56;5010185;28;20026;-77
2023/05/30 07:31:18;;;;;;;56.15;14.52;;;;;;;26.02;52.04;100476.03;5011613;28;20034;-78
2023/05/30 07:33:44;;;;;;;54.55;8.73;;;;;;;26.02;51.99;100485.16;5011583;28;20048;-77
2023/05/30 07:36:10;;;;;;;39.33;9.00;;;;;;;26.06;51.70;100480.00;5011257;28;20450;-76
2023/05/30 07:38:36;;;;;;;24.05;9.07;;;;;;;26.07;52.52;100454.13;5012005;28;20029;-76
2023/05/30 07:41:01;;;;;;;28.83;8.70;;;;;;;26.20;52.05;100482.44;5011914;28;20454;-78
2023/05/30 07:43:28;;;;;;;13.68;7.53;;;;;;;26.22;52.21;100480.28;5011230;28;20057;-80
2023/05/30 07:45:53;;;;;;;33.38;8.50;;;;;;;26.37;51.85;100483.47;5011180;28;20045;-77
2023/05/30 07:48:19;;;;;;;15.23;7.45;;;;;;;26.43;51.21;100479.78;5011242;28;20094;-77
2023/05/30 07:50:44;;;;;;;79.35;13.70;;;;;;;26.61;51.59;100481.66;5011896;28;20049;-78
2023/05/30 07:53:10;;;;;;;28.13;8.75;;;;;;;26.66;50.39;100490.13;5012584;28;20029;-78
2023/05/30 07:55:35;;;;;;;24.38;8.48;;;;;;;26.72;49.67;100486.41;5013172;28;20469;-78
2023/05/30 07:58:01;;;;;;;21.08;7.53;;;;;;;26.80;49.78;100485.25;5017225;28;20034;-79
2023/05/30 08:00:27;;;;;;;83.50;13.38;;;;;;;26.88;49.62;100483.00;5024494;28;20049;-78
2023/05/30 08:02:52;;;;;;;23.08;6.75;;;;;;;26.90;49.85;100483.63;5026188;28;20493;-78
2023/05/30 08:05:17;;;;;;;50.17;9.40;;;;;;;26.86;49.73;100490.69;5016341;28;20414;-77
2023/05/30 08:07:43;;;;;;;27.27;7.70;;;;;;;26.83;49.83;100482.03;5010520;28;20021;-78
2023/05/30 08:10:08;;;;;;;34.00;8.75;;;;;;;26.87;49.65;100484.13;5010947;28;20026;-77
2023/05/30 08:12:34;;;;;;;25.52;6.15;;;;;;;26.90;49.28;100489.16;5010048;28;20026;-78
2023/05/30 08:14:59;;;;;;;24.77;8.20;;;;;;;26.79;49.84;100470.59;5014152;28;20030;-78
2023/05/30 08:17:26;;;;;;;31.15;9.18;;;;;;;26.93;50.29;100490.59;5010859;28;20468;-76
2023/05/30 08:19:55;;;;;;;21.10;7.28;;;;;;;27.00;50.45;100483.06;5011140;28;20034;-77
2023/05/30 08:22:23;;;;;;;21.90;9.23;;;;;;;27.06;50.04;100482.13;5008441;28;20034;-78
2023/05/30 08:24:59;;;;;;;29.88;7.85;;;;;;;27.00;48.72;100472.84;5010825;28;20025;-77
2023/05/30 08:27:24;;;;;;;12.55;6.20;;;;;;;27.07;47.81;100477.44;5010359;28;20048;-79
2023/05/30 08:29:50;;;;;;;19.15;7.18;;;;;;;27.06;47.08;100492.34;5010803;28;20026;-77
2023/05/30 08:32:16;;;;;;;78.13;11.07;;;;;;;27.08;46.35;100487.41;5010510;28;20030;-78
2023/05/30 08:34:43;;;;;;;15.23;6.28;;;;;;;26.99;45.41;100476.72;5010578;28;20731;-78
2023/05/30 08:37:08;;;;;;;22.30;8.25;;;;;;;26.97;46.69;100473.31;5010670;28;20033;-76
2023/05/30 08:39:34;;;;;;;62.60;10.77;;;;;;;26.97;47.04;100489.88;5010121;28;20033;-77
2023/05/30 08:42:00;;;;;;;40.60;8.30;;;;;;;27.03;47.29;100480.66;5009945;28;20030;-76
2023/05/30 08:44:27;;;;;;;25.13;7.00;;;;;;;27.09;47.52;100484.44;5010167;28;20057;-78
2023/05/30 08:46:53;;;;;;;100.68;13.40;;;;;;;27.11;48.74;100478.66;5010168;28;20028;-77
2023/05/30 08:49:21;;;;;;;29.80;8.93;;;;;;;27.22;47.43;100484.19;5009752;28;20468;-79
2023/05/30 08:51:48;;;;;;;27.08;6.30;;;;;;;27.08;46.23;100484.66;5010400;28;20033;-79
2023/05/30 08:54:21;;;;;;;51.40;7.75;;;;;;;27.11;47.05;100486.94;5010303;28;20026;-79
2023/05/30 08:56:58;;;;;;;26.02;7.05;;;;;;;27.19;46.70;100486.59;5009448;28;20482;-78
2023/05/30 08:59:28;;;;;;;31.75;7.70;;;;;;;27.11;46.37;100479.50;5009893;28;20120;-78
2023/05/30 09:01:56;;;;;;;20.38;6.30;;;;;;;27.11;45.18;100481.41;5012785;28;20401;-80
2023/05/30 09:04:22;;;;;;;54.33;14.07;;;;;;;27.17;45.94;100483.22;5014119;28;20091;-78
2023/05/30 09:06:48;;;;;;;24.42;6.95;;;;;;;27.27;46.40;100481.59;5013868;28;20047;-78
2023/05/30 09:09:15;;;;;;;53.75;8.68;;;;;;;27.25;45.83;100485.63;5013696;28;20025;-78
2023/05/30 09:11:42;;;;;;;8.50;5.88;;;;;;;27.35;46.19;100485.91;5012360;28;20120;-77
2023/05/30 09:14:08;;;;;;;40.63;10.32;;;;;;;27.34;46.69;100495.25;5014558;28;20034;-78
2023/05/30 09:16:33;;;;;;;19.08;8.18;;;;;;;27.29;46.36;100492.38;4995618;28;20579;-76
2023/05/30 09:18:59;;;;;;;21.75;8.23;;;;;;;27.04;46.76;100456.66;5013963;28;20473;-77
2023/05/30 09:21:25;;;;;;;8.85;6.30;;;;;;;27.30;46.87;100494.06;5013489;28;20504;-77
2023/05/30 09:23:51;;;;;;;20.05;6.95;;;;;;;27.32;46.64;100486.38;5013537;28;20533;-78
2023/05/30 09:26:18;;;;;;;13.35;7.05;;;;;;;27.34;46.61;100498.03;5013643;28;20113;-78
2023/05/30 09:28:48;;;;;;;25.92;7.00;;;;;;;27.23;46.31;100493.31;5013107;28;20040;-77
2023/05/30 09:31:15;;;;;;;33.05;12.77;;;;;;;27.18;46.91;100491.28;5013266;28;20030;-79
2023/05/30 09:33:46;;;;;;;38.40;8.52;;;;;;;27.26;46.05;100498.38;5013583;28;20041;-78
2023/05/30 09:36:18;;;;;;;25.05;7.65;;;;;;;27.29;46.38;100486.84;5013368;28;20034;-80
2023/05/30 09:39:05;;;;;;;66.68;9.93;;;;;;;27.26;45.92;100487.31;5013035;28;20559;-78
2023/05/30 09:41:31;;;;;;;27.92;7.38;;;;;;;27.25;46.18;100483.72;5013315;28;20037;-80
2023/05/30 09:43:57;;;;;;;51.28;11.68;;;;;;;27.37;46.36;100500.31;5013310;28;20520;-77
2023/05/30 09:46:34;;;;;;;26.95;7.55;;;;;;;27.38;46.90;100490.94;5012918;28;20030;-77
2023/05/30 09:49:10;;;;;;;19.60;7.03;;;;;;;27.38;46.79;100482.66;5013072;28;20038;-78
2023/05/30 09:51:37;;;;;;;23.42;7.45;;;;;;;27.44;46.75;100485.34;5013107;28;20034;-78
2023/05/30 09:54:04;;;;;;;41.95;9.88;;;;;;;27.62;46.80;100480.78;5012327;28;20033;-77
2023/05/30 09:56:32;;;;;;;101.60;13.38;;;;;;;27.80;45.28;100478.75;5009212;28;20571;-79
2023/05/30 09:58:58;;;;;;;37.40;7.28;;;;;;;28.07;43.77;100474.44;5011338;28;20072;-78
2023/05/30 10:01:24;;;;;;;49.63;11.30;;;;;;;28.21;43.16;100480.56;5011594;28;20117;-77
2023/05/30 10:03:49;;;;;;;24.73;7.45;;;;;;;28.04;40.50;100474.91;5011902;28;20052;-79
2023/05/30 10:06:15;;;;;;;26.02;8.68;;;;;;;27.99;41.35;100474.78;5011985;28;20060;-77
2023/05/30 10:08:44;;;;;;;17.67;8.38;;;;;;;27.80;40.59;100473.22;5011184;28;20038;-78
2023/05/30 10:11:10;;;;;;;40.90;8.65;;;;;;;27.84;40.82;100474.44;5011357;28;20030;-79
2023/05/30 10:13:37;;;;;;;12.45;5.45;;;;;;;27.90;40.90;100470.69;5011323;28;20137;-77
2023/05/30 10:16:07;;;;;;;18.55;6.55;;;;;;;27.93;41.38;100481.28;5011961;28;20026;-79
2023/05/30 10:18:35;;;;;;;36.33;8.55;;;;;;;27.87;40.61;100468.41;5011616;28;20076;-77
2023/05/30 10:21:01;;;;;;;44.65;8.60;;;;;;;27.67;40.75;100473.50;5012519;28;20026;-80
2023/05/30 10:23:27;;;;;;;26.40;6.38;;;;;;;27.55;41.15;100469.88;5014443;28;20034;-80
2023/05/30 10:25:57;;;;;;;17.42;6.70;;;;;;;27.45;41.02;100475.16;5012112;28;20044;-80
2023/05/30 10:28:28;;;;;;;40.30;7.65;;;;;;;27.40;41.17;100466.72;5011119;28;20034;-79
2023/05/30 10:30:55;;;;;;;52.92;8.80;;;;;;;27.43;41.29;100455.22;5011250;28;20446;-80
2023/05/30 10:33:21;;;;;;;29.50;8.57;;;;;;;27.79;41.48;100454.97;5011525;28;20065;-80
2023/05/30 10:35:47;;;;;;;18.23;7.45;;;;;;;27.77;46.41;100457.13;5010770;28;20026;-79
2023/05/30 10:38:13;;;;;;;23.65;8.30;;;;;;;27.24;49.55;100464.63;5010872;28;20571;-79
2023/05/30 10:40:44;;;;;;;67.70;11.48;;;;;;;27.06;52.35;100464.72;5010691;28;20116;-79
2023/05/30 10:43:25;;;;;;;23.05;8.25;;;;;;;26.59;54.74;100461.75;5010267;28;20201;-79
2023/05/30 10:46:12;;;;;;;38.38;9.65;;;;;;;26.23;56.94;100481.13;5010699;28;20117;-80
2023/05/30 10:48:44;;;;;;;29.17;9.63;;;;;;;25.83;59.92;100489.78;5015864;28;20037;-78
2023/05/30 10:51:13;;;;;;;52.85;12.00;;;;;;;26.05;60.88;100464.53;5011066;28;20037;-79
2023/05/30 10:53:44;;;;;;;21.92;9.30;;;;;;;26.09;61.56;100471.25;5011114;28;20109;-78
2023/05/30 10:56:41;;;;;;;41.15;11.18;;;;;;;25.87;61.41;100482.72;5010449;28;20026;-79
2023/05/30 10:59:18;;;;;;;26.40;11.05;;;;;;;25.72;61.62;100479.50;5009649;28;20041;-80
2023/05/30 11:02:01;;;;;;;49.88;11.95;;;;;;;25.91;61.54;100486.72;5010974;28;20084;-79
2023/05/30 11:04:34;;;;;;;44.08;11.32;;;;;;;25.98;60.02;100482.00;5010299;28;20474;-80
2023/05/30 11:07:02;;;;;;;54.72;12.88;;;;;;;25.77;59.49;100487.94;5010715;28;20029;-78
2023/05/30 11:09:27;;;;;;;28.35;11.23;;;;;;;25.40;61.31;100486.13;5010181;28;20509;-78
2023/05/30 11:11:53;;;;;;;46.28;13.60;;;;;;;25.51;61.80;100484.56;5012559;28;20075;-78
2023/05/30 11:14:25;;;;;;;30.77;11.65;;;;;;;25.55;61.06;100481.16;5010947;28;20030;-78